Time;durP1;ratioP1;P1;durP2;ratioP2;P2;SDS_P1;SDS_P2;PMS_P1;PMS_P2;Temp;Humidity;BMP_temperature;BMP_pressure;BME280_temperature;BME280_humidity;BME280_pressure;Samples;Min_cycle;Max_cycle;Signal;HPM_P1;HPM_P2
2022/09/23 00:00:41;;;;;;;7.68;4.53;;;;;;;;;;6271570;28;20045;-76
2022/09/23 00:03:44;;;;;;;5.63;4.22;;;;;;;;;;6273896;28;20045;-77
2022/09/23 00:06:47;;;;;;;5.32;4.35;;;;;;;;;;6276333;28;20095;-75
2022/09/23 00:09:50;;;;;;;10.85;4.20;;;;;;;;;;6273918;28;20064;-77
2022/09/23 00:12:51;;;;;;;7.27;4.30;;;;;;;;;;6276735;28;20344;-75
2022/09/23 00:15:53;;;;;;;8.07;4.35;;;;;;;;;;6280326;28;20467;-76
2022/09/23 00:18:55;;;;;;;5.55;4.10;;;;;;;;;;6279738;28;20090;-76
2022/09/23 00:21:58;;;;;;;6.80;4.25;;;;;;;;;;6281977;28;20197;-76
2022/09/23 00:24:59;;;;;;;4.63;3.70;;;;;;;;;;6279087;28;20337;-76
2022/09/23 00:28:02;;;;;;;5.45;4.20;;;;;;;;;;6279924;28;20463;-77
2022/09/23 00:31:04;;;;;;;7.85;4.22;;;;;;;;;;6279590;28;20060;-76
2022/09/23 00:34:05;;;;;;;6.97;4.00;;;;;;;;;;6279353;28;20045;-76
2022/09/23 00:37:09;;;;;;;8.60;4.53;;;;;;;;;;6273955;28;20060;-75
2022/09/23 00:40:11;;;;;;;11.20;3.63;;;;;;;;;;6269707;28;20048;-75
2022/09/23 00:43:13;;;;;;;5.22;3.50;;;;;;;;;;6273320;28;20114;-76
2022/09/23 00:46:18;;;;;;;4.18;3.20;;;;;;;;;;6271584;28;20547;-75
2022/09/23 00:49:23;;;;;;;7.30;3.47;;;;;;;;;;6270200;28;20090;-75
2022/09/23 00:52:27;;;;;;;5.60;3.25;;;;;;;;;;6271828;28;20683;-75
2022/09/23 00:55:32;;;;;;;9.77;3.65;;;;;;;;;;6271441;28;20068;-75
2022/09/23 00:58:36;;;;;;;5.70;2.83;;;;;;;;;;6272427;28;20049;-75
2022/09/23 01:01:38;;;;;;;4.53;2.92;;;;;;;;;;6271879;28;20257;-75
2022/09/23 01:04:40;;;;;;;3.55;2.97;;;;;;;;;;6271860;28;20248;-75
2022/09/23 01:07:43;;;;;;;5.32;3.40;;;;;;;;;;6269594;28;20110;-76
2022/09/23 01:10:52;;;;;;;5.30;2.83;;;;;;;;;;6271696;28;20048;-75
2022/09/23 01:14:01;;;;;;;3.90;2.70;;;;;;;;;;6270428;28;20269;-75
2022/09/23 01:17:07;;;;;;;3.67;2.80;;;;;;;;;;6273814;28;20348;-76
2022/09/23 01:20:27;;;;;;;5.22;2.75;;;;;;;;;;6273410;28;20217;-75
2022/09/23 01:23:57;;;;;;;8.27;3.25;;;;;;;;;;6271824;28;20056;-77
2022/09/23 01:27:04;;;;;;;6.45;2.92;;;;;;;;;;6267250;28;20115;-75
2022/09/23 01:30:15;;;;;;;3.50;2.40;;;;;;;;;;6269412;28;20334;-75
2022/09/23 01:33:23;;;;;;;3.58;2.80;;;;;;;;;;6269914;28;20045;-77
2022/09/23 01:36:27;;;;;;;5.18;3.05;;;;;;;;;;6269805;28;20048;-72
2022/09/23 01:39:35;;;;;;;4.45;2.53;;;;;;;;;;6272854;28;20052;-70
2022/09/23 01:42:39;;;;;;;3.38;2.63;;;;;;;;;;6273236;28;20072;-71
2022/09/23 01:45:43;;;;;;;5.63;3.00;;;;;;;;;;6271213;28;20053;-76
2022/09/23 01:48:51;;;;;;;5.38;3.03;;;;;;;;;;6272964;28;20127;-74
2022/09/23 01:51:58;;;;;;;3.67;3.00;;;;;;;;;;6272840;28;20154;-72
2022/09/23 01:55:04;;;;;;;3.03;2.30;;;;;;;;;;6273943;28;20053;-73
2022/09/23 01:58:07;;;;;;;6.22;2.80;;;;;;;;;;6275081;28;20048;-76
2022/09/23 02:01:13;;;;;;;3.90;2.75;;;;;;;;;;6273293;28;20048;-74
2022/09/23 02:04:21;;;;;;;3.63;2.83;;;;;;;;;;6271185;28;21040;-74
2022/09/23 02:07:25;;;;;;;4.97;2.40;;;;;;;;;;6271959;28;20159;-74
2022/09/23 02:10:30;;;;;;;4.05;2.50;;;;;;;;;;6272095;28;20328;-75
2022/09/23 02:13:38;;;;;;;4.68;2.83;;;;;;;;;;6275192;28;20057;-76
2022/09/23 02:16:44;;;;;;;6.15;3.17;;;;;;;;;;6277535;28;20056;-75
2022/09/23 02:19:50;;;;;;;4.53;2.80;;;;;;;;;;6280733;28;20053;-73
2022/09/23 02:22:56;;;;;;;5.82;2.53;;;;;;;;;;6279321;28;20057;-74
2022/09/23 02:26:03;;;;;;;4.63;2.78;;;;;;;;;;6279453;28;20099;-73
2022/09/23 02:29:17;;;;;;;4.30;2.63;;;;;;;;;;6277628;28;20146;-73
2022/09/23 02:32:23;;;;;;;3.40;2.53;;;;;;;;;;6273998;28;20048;-76
2022/09/23 02:35:31;;;;;;;3.58;2.45;;;;;;;;;;6273592;28;20386;-74
2022/09/23 02:38:37;;;;;;;4.68;3.03;;;;;;;;;;6271239;28;20059;-75
2022/09/23 02:41:45;;;;;;;4.68;2.60;;;;;;;;;;6276944;28;20040;-74
2022/09/23 02:44:46;;;;;;;4.88;2.58;;;;;;;;;;6273051;28;20114;-72
2022/09/23 02:47:54;;;;;;;3.58;2.60;;;;;;;;;;6276152;28;20091;-74
2022/09/23 02:50:59;;;;;;;3.58;2.28;;;;;;;;;;6276731;28;20041;-74
2022/09/23 02:54:01;;;;;;;4.68;2.80;;;;;;;;;;6278709;28;20045;-75
2022/09/23 02:57:05;;;;;;;3.75;2.97;;;;;;;;;;6276220;28;20057;-74
2022/09/23 03:00:07;;;;;;;;;;;;;;;;;;6270553;28;20087;-74
2022/09/23 03:03:21;;;;;;;4.78;2.67;;;;;;;;;;6274827;28;19931;-74
2022/09/23 03:06:28;;;;;;;5.63;3.00;;;;;;;;;;6272456;28;20063;-74
2022/09/23 03:09:32;;;;;;;4.50;2.50;;;;;;;;;;6273316;28;20244;-75
2022/09/23 03:12:39;;;;;;;3.03;2.67;;;;;;;;;;6273213;28;20053;-75
2022/09/23 03:15:46;;;;;;;3.50;2.83;;;;;;;;;;6270752;28;20109;-75
2022/09/23 03:18:51;;;;;;;5.28;3.05;;;;;;;;;;6270149;28;20056;-74
2022/09/23 03:22:00;;;;;;;4.15;2.90;;;;;;;;;;6274106;28;20060;-73
2022/09/23 03:25:07;;;;;;;5.43;2.75;;;;;;;;;;6271605;28;20049;-74
2022/09/23 03:28:08;;;;;;;4.72;2.92;;;;;;;;;;6274094;28;20394;-75
2022/09/23 03:31:11;;;;;;;6.07;3.05;;;;;;;;;;6272332;28;20147;-74
2022/09/23 03:34:15;;;;;;;4.72;2.47;;;;;;;;;;6273904;28;20053;-75
2022/09/23 03:37:22;;;;;;;6.88;3.00;;;;;;;;;;6273823;28;20064;-74
2022/09/23 03:40:25;;;;;;;4.13;2.83;;;;;;;;;;6272862;28;20052;-75
2022/09/23 03:43:27;;;;;;;6.93;2.35;;;;;;;;;;6272209;28;20056;-75
2022/09/23 03:46:29;;;;;;;7.10;2.97;;;;;;;;;;6274472;28;20053;-76
2022/09/23 03:49:34;;;;;;;7.18;3.35;;;;;;;;;;6274103;28;20071;-75
2022/09/23 03:52:38;;;;;;;5.68;2.70;;;;;;;;;;6279240;28;20208;-75
2022/09/23 03:55:40;;;;;;;3.88;2.70;;;;;;;;;;6273922;28;20045;-75
2022/09/23 03:58:42;;;;;;;4.03;2.58;;;;;;;;;;6276398;28;20068;-75
2022/09/23 04:01:44;;;;;;;5.50;2.70;;;;;;;;;;6276740;28;20323;-75
2022/09/23 04:04:46;;;;;;;5.30;2.95;;;;;;;;;;6277655;28;20092;-74
2022/09/23 04:07:49;;;;;;;3.72;2.45;;;;;;;;;;6274902;28;20049;-76
2022/09/23 04:10:51;;;;;;;3.97;2.85;;;;;;;;;;6276739;28;20052;-76
2022/09/23 04:13:53;;;;;;;4.50;3.03;;;;;;;;;;6277054;28;20048;-73
2022/09/23 04:16:54;;;;;;;3.45;2.67;;;;;;;;;;6277010;28;20332;-74
2022/09/23 04:19:56;;;;;;;2.80;2.40;;;;;;;;;;6276929;28;20086;-73
2022/09/23 04:22:59;;;;;;;5.63;3.10;;;;;;;;;;6275179;28;20053;-73
2022/09/23 04:26:01;;;;;;;4.77;3.43;;;;;;;;;;6274841;28;21062;-75
2022/09/23 04:29:03;;;;;;;3.78;2.70;;;;;;;;;;6271610;28;20067;-73
2022/09/23 04:32:05;;;;;;;4.25;2.72;;;;;;;;;;6277399;28;20059;-73
2022/09/23 04:35:07;;;;;;;6.43;3.00;;;;;;;;;;6275114;28;22239;-72
2022/09/23 04:38:11;;;;;;;8.45;3.42;;;;;;;;;;6275280;28;20138;-74
2022/09/23 04:41:13;;;;;;;14.23;3.65;;;;;;;;;;6269668;28;20414;-70
2022/09/23 04:44:15;;;;;;;5.43;3.13;;;;;;;;;;6270835;28;20098;-71
2022/09/23 04:47:18;;;;;;;3.92;2.97;;;;;;;;;;6271570;28;20383;-69
2022/09/23 04:50:19;;;;;;;6.95;2.80;;;;;;;;;;6278012;28;20044;-70
2022/09/23 04:53:22;;;;;;;5.53;3.67;;;;;;;;;;6278815;28;20087;-70
2022/09/23 04:56:26;;;;;;;7.47;3.23;;;;;;;;;;6276031;28;20321;-70
2022/09/23 04:59:29;;;;;;;5.35;3.10;;;;;;;;;;6277077;28;20048;-69
2022/09/23 05:02:30;;;;;;;7.72;3.45;;;;;;;;;;6275028;28;20063;-68
2022/09/23 05:05:33;;;;;;;6.40;3.22;;;;;;;;;;6273715;28;20395;-70
2022/09/23 05:08:36;;;;;;;5.07;3.00;;;;;;;;;;6275249;28;20044;-70
2022/09/23 05:11:37;;;;;;;3.77;3.07;;;;;;;;;;6274864;28;20060;-69
2022/09/23 05:14:39;;;;;;;7.63;3.25;;;;;;;;;;6273033;28;20053;-70
2022/09/23 05:17:41;;;;;;;6.50;3.72;;;;;;;;;;6274881;28;20044;-69
2022/09/23 05:20:43;;;;;;;5.05;3.13;;;;;;;;;;6274594;28;20057;-71
2022/09/23 05:23:49;;;;;;;4.25;3.10;;;;;;;;;;6271973;28;20044;-72
2022/09/23 05:26:51;;;;;;;3.92;3.40;;;;;;;;;;6275386;28;20056;-73
2022/09/23 05:29:52;;;;;;;9.25;3.95;;;;;;;;;;6277009;28;20114;-75
2022/09/23 05:32:54;;;;;;;7.50;3.78;;;;;;;;;;6273692;28;20048;-73
2022/09/23 05:35:56;;;;;;;7.40;3.33;;;;;;;;;;6276467;28;20360;-74
2022/09/23 05:38:59;;;;;;;28.33;5.40;;;;;;;;;;6269540;28;20084;-70
2022/09/23 05:42:00;;;;;;;6.03;3.27;;;;;;;;;;6273145;28;20071;-75
2022/09/23 05:45:02;;;;;;;8.73;4.50;;;;;;;;;;6276041;28;20053;-75
2022/09/23 05:48:04;;;;;;;8.20;3.63;;;;;;;;;;6273716;28;20053;-74
2022/09/23 05:51:07;;;;;;;6.28;3.88;;;;;;;;;;6275264;28;20056;-75
2022/09/23 05:54:11;;;;;;;;;;;;;;;;;;6275984;28;20076;-72
2022/09/23 05:57:12;;;;;;;7.28;3.80;;;;;;;;;;6273043;28;20238;-72
2022/09/23 06:00:15;;;;;;;7.25;4.20;;;;;;;;;;6270302;28;20048;-74
2022/09/23 06:03:18;;;;;;;6.68;4.18;;;;;;;;;;6271963;28;20360;-74
2022/09/23 06:06:21;;;;;;;7.57;4.00;;;;;;;;;;6277398;28;20102;-74
2022/09/23 06:09:24;;;;;;;6.25;4.18;;;;;;;;;;6274148;28;20045;-72
2022/09/23 06:12:26;;;;;;;5.80;3.73;;;;;;;;;;6269148;28;21128;-74
2022/09/23 06:15:27;;;;;;;12.40;4.25;;;;;;;;;;6275253;28;20056;-68
2022/09/23 06:18:29;;;;;;;12.98;5.13;;;;;;;;;;6272409;28;20056;-69
2022/09/23 06:21:31;;;;;;;12.35;4.88;;;;;;;;;;6274454;28;20049;-69
2022/09/23 06:24:34;;;;;;;8.80;4.60;;;;;;;;;;6271976;28;20071;-69
2022/09/23 06:27:36;;;;;;;8.37;4.37;;;;;;;;;;6273365;28;20336;-69
2022/09/23 06:30:39;;;;;;;9.27;4.78;;;;;;;;;;6272564;28;20053;-69
2022/09/23 06:33:41;;;;;;;9.40;4.70;;;;;;;;;;6272699;28;20143;-68
2022/09/23 06:36:43;;;;;;;6.55;4.20;;;;;;;;;;6275073;28;20344;-70
2022/09/23 06:39:47;;;;;;;6.75;4.07;;;;;;;;;;6277959;28;20443;-70
2022/09/23 06:42:57;;;;;;;8.57;4.30;;;;;;;;;;6278094;28;20139;-73
2022/09/23 06:46:00;;;;;;;7.18;4.20;;;;;;;;;;6271341;28;20057;-73
2022/09/23 06:49:02;;;;;;;11.70;4.13;;;;;;;;;;6272608;28;20166;-74
2022/09/23 06:52:05;;;;;;;7.88;4.38;;;;;;;;;;6274495;28;20061;-73
2022/09/23 06:55:10;;;;;;;6.13;3.45;;;;;;;;;;6274580;28;20061;-72
2022/09/23 06:58:11;;;;;;;9.80;3.20;;;;;;;;;;6271813;28;20102;-73
2022/09/23 07:01:15;;;;;;;7.93;3.47;;;;;;;;;;6273643;28;20045;-73
2022/09/23 07:04:17;;;;;;;7.60;3.30;;;;;;;;;;6273313;28;20064;-70
2022/09/23 07:07:19;;;;;;;8.07;4.25;;;;;;;;;;6271283;28;20166;-73
2022/09/23 07:10:22;;;;;;;5.55;3.83;;;;;;;;;;6270059;28;20427;-72
2022/09/23 07:13:24;;;;;;;4.97;3.57;;;;;;;;;;6273393;28;20067;-72
2022/09/23 07:16:25;;;;;;;6.93;3.83;;;;;;;;;;6273345;28;20479;-71
2022/09/23 07:19:27;;;;;;;6.68;3.60;;;;;;;;;;6270767;28;20057;-72
2022/09/23 07:22:29;;;;;;;7.28;3.47;;;;;;;;;;6272583;28;20344;-72
2022/09/23 07:25:33;;;;;;;6.25;3.60;;;;;;;;;;6273644;28;20053;-72
2022/09/23 07:28:35;;;;;;;6.88;3.38;;;;;;;;;;6276101;28;20053;-75
2022/09/23 07:31:37;;;;;;;3.80;3.10;;;;;;;;;;6276468;28;20053;-76
2022/09/23 07:34:39;;;;;;;6.95;3.10;;;;;;;;;;6277863;28;20061;-67
2022/09/23 07:37:40;;;;;;;8.93;3.25;;;;;;;;;;6277021;28;20057;-67
2022/09/23 07:40:43;;;;;;;9.65;3.40;;;;;;;;;;6276156;28;20052;-67
2022/09/23 07:43:45;;;;;;;5.07;3.35;;;;;;;;;;6278210;28;20052;-68
2022/09/23 07:46:48;;;;;;;5.97;3.38;;;;;;;;;;6280535;28;20044;-70
2022/09/23 07:49:49;;;;;;;9.82;3.50;;;;;;;;;;6275877;28;20048;-68
2022/09/23 07:52:52;;;;;;;3.67;3.00;;;;;;;;;;6284813;28;20374;-68
2022/09/23 07:55:56;;;;;;;4.40;3.15;;;;;;;;;;6280970;28;20103;-67
2022/09/23 07:59:01;;;;;;;6.47;2.90;;;;;;;;;;6279777;28;20079;-66
2022/09/23 08:02:03;;;;;;;3.67;2.50;;;;;;;;;;6276533;28;20053;-67
2022/09/23 08:05:06;;;;;;;5.95;2.60;;;;;;;;;;6274135;28;20083;-65
2022/09/23 08:08:08;;;;;;;4.93;2.08;;;;;;;;;;6273110;28;20036;-67
2022/09/23 08:11:13;;;;;;;8.35;2.38;;;;;;;;;;6275725;28;20074;-68
2022/09/23 08:14:16;;;;;;;6.32;2.60;;;;;;;;;;6277400;28;20244;-67
2022/09/23 08:17:18;;;;;;;4.13;2.42;;;;;;;;;;6279635;28;20076;-66
2022/09/23 08:23:35;;;;;;;4.30;2.65;;;;;;;;;;6272967;28;20275;-68
2022/09/23 08:26:38;;;;;;;7.50;3.00;;;;;;;;;;6276089;28;20397;-63
2022/09/23 08:29:40;;;;;;;124.78;12.45;;;;;;;;;;6275032;28;20287;-66
2022/09/23 08:32:41;;;;;;;6.70;2.95;;;;;;;;;;6275322;28;20068;-69
2022/09/23 08:35:43;;;;;;;5.80;2.80;;;;;;;;;;6275505;28;20339;-70
2022/09/23 08:38:44;;;;;;;8.18;3.08;;;;;;;;;;6276106;28;20272;-70
2022/09/23 08:42:04;;;;;;;16.90;3.60;;;;;;;;;;6277094;28;20083;-69
2022/09/23 08:45:07;;;;;;;7.20;2.28;;;;;;;;;;6276415;28;20052;-69
2022/09/23 08:48:14;;;;;;;5.18;1.90;;;;;;;;;;6271253;28;20051;-69
2022/09/23 08:51:20;;;;;;;10.80;2.30;;;;;;;;;;6277228;28;20367;-69
2022/09/23 08:54:22;;;;;;;4.72;2.15;;;;;;;;;;6275083;28;20329;-70
2022/09/23 08:57:34;;;;;;;4.68;2.40;;;;;;;;;;6275939;28;20276;-68
2022/09/23 09:00:40;;;;;;;9.50;2.75;;;;;;;;;;6276190;28;20065;-70
2022/09/23 09:03:46;;;;;;;3.83;2.30;;;;;;;;;;6276618;28;20053;-70
2022/09/23 09:06:50;;;;;;;3.65;2.30;;;;;;;;;;6279792;28;20109;-69
2022/09/23 09:09:57;;;;;;;4.50;3.13;;;;;;;;;;6274707;28;20076;-69
2022/09/23 09:13:06;;;;;;;8.05;3.08;;;;;;;;;;6275671;28;20295;-70
2022/09/23 09:16:19;;;;;;;5.97;3.10;;;;;;;;;;6274493;28;20050;-70
2022/09/23 09:19:35;;;;;;;6.75;3.00;;;;;;;;;;6276978;28;20057;-69
2022/09/23 09:22:50;;;;;;;8.18;3.20;;;;;;;;;;6273212;28;20060;-70
2022/09/23 09:25:54;;;;;;;5.85;2.90;;;;;;;;;;6271467;28;20113;-70
2022/09/23 09:28:58;;;;;;;;;;;;;;;;;;6279021;28;20081;-69
2022/09/23 09:32:00;;;;;;;4.47;2.53;;;;;;;;;;6279447;28;19993;-71
2022/09/23 09:35:09;;;;;;;4.25;2.72;;;;;;;;;;6277059;28;20052;-70
2022/09/23 09:38:12;;;;;;;7.20;3.20;;;;;;;;;;6277974;28;20134;-70
2022/09/23 09:41:16;;;;;;;5.60;3.13;;;;;;;;;;6276992;28;20055;-69
2022/09/23 09:44:23;;;;;;;6.63;3.28;;;;;;;;;;6276313;28;20864;-69
2022/09/23 09:47:35;;;;;;;6.70;2.75;;;;;;;;;;6272983;28;20061;-69
2022/09/23 09:50:45;;;;;;;4.22;2.63;;;;;;;;;;6272754;28;20382;-70
2022/09/23 09:53:50;;;;;;;5.63;2.28;;;;;;;;;;6274020;28;20052;-71
2022/09/23 09:56:52;;;;;;;5.88;3.42;;;;;;;;;;6273510;28;20120;-69
2022/09/23 09:59:55;;;;;;;4.70;2.95;;;;;;;;;;6273888;28;20094;-72
2022/09/23 10:02:58;;;;;;;6.68;3.30;;;;;;;;;;6273250;28;20060;-70
2022/09/23 10:06:00;;;;;;;3.78;2.85;;;;;;;;;;6275894;28;20394;-69
2022/09/23 10:09:15;;;;;;;5.40;3.13;;;;;;;;;;6272246;28;20327;-74
2022/09/23 10:12:18;;;;;;;7.60;3.80;;;;;;;;;;6274725;28;20264;-71
2022/09/23 10:15:31;;;;;;;5.03;3.22;;;;;;;;;;6270877;28;20048;-71
2022/09/23 10:18:36;;;;;;;5.72;3.00;;;;;;;;;;6277472;28;20056;-71
2022/09/23 10:21:40;;;;;;;8.07;2.92;;;;;;;;;;6273562;28;20316;-70
2022/09/23 10:24:48;;;;;;;4.97;3.30;;;;;;;;;;6278075;28;20186;-71
2022/09/23 10:27:50;;;;;;;9.00;3.40;;;;;;;;;;6276263;28;20051;-73
2022/09/23 10:31:04;;;;;;;6.40;3.58;;;;;;;;;;6276813;28;20053;-70
2022/09/23 10:34:23;;;;;;;5.28;3.00;;;;;;;;;;6277426;28;20386;-70
2022/09/23 10:37:37;;;;;;;8.88;3.80;;;;;;;;;;6274984;28;20044;-72
2022/09/23 10:47:36;;;;;;;5.25;3.40;;;;;;;;;;6271205;28;20328;-69
2022/09/23 10:50:42;;;;;;;7.90;2.95;;;;;;;;;;6272959;28;20281;-69
2022/09/23 10:53:53;;;;;;;6.97;3.97;;;;;;;;;;6272234;28;20196;-72
2022/09/23 10:56:58;;;;;;;21.05;4.18;;;;;;;;;;6278712;28;20104;-67
2022/09/23 11:00:05;;;;;;;9.32;3.78;;;;;;;;;;6278746;28;20052;-71
2022/09/23 11:03:31;;;;;;;8.25;4.85;;;;;;;;;;6275700;28;20057;-74
2022/09/23 11:06:40;;;;;;;8.32;4.03;;;;;;;;;;6273078;28;20063;-72
2022/09/23 11:09:52;;;;;;;7.97;3.80;;;;;;;;;;6272833;28;20071;-69
2022/09/23 11:12:59;;;;;;;6.97;4.28;;;;;;;;;;6271096;28;20402;-68
2022/09/23 11:16:08;;;;;;;17.70;4.70;;;;;;;;;;6273189;28;20081;-68
2022/09/23 11:19:23;;;;;;;5.95;3.92;;;;;;;;;;6273331;28;20049;-69
2022/09/23 11:22:37;;;;;;;5.90;4.22;;;;;;;;;;6271442;28;20059;-72
2022/09/23 11:25:46;;;;;;;5.30;3.95;;;;;;;;;;6268357;28;20041;-71
2022/09/23 11:29:32;;;;;;;7.47;4.03;;;;;;;;;;6275807;28;20119;-73
2022/09/23 11:32:50;;;;;;;8.00;4.60;;;;;;;;;;6265228;28;20135;-69
2022/09/23 11:35:59;;;;;;;8.40;4.00;;;;;;;;;;6271821;28;20718;-69
2022/09/23 11:39:06;;;;;;;7.03;4.20;;;;;;;;;;6268011;28;20102;-70
2022/09/23 11:42:16;;;;;;;7.57;4.53;;;;;;;;;;6271069;28;20041;-68
2022/09/23 11:45:22;;;;;;;3.85;3.33;;;;;;;;;;6273681;28;20287;-69
2022/09/23 11:48:29;;;;;;;9.02;4.68;;;;;;;;;;6272622;28;20272;-70
2022/09/23 11:51:40;;;;;;;7.60;3.92;;;;;;;;;;6273792;28;20060;-73
2022/09/23 11:54:46;;;;;;;11.15;3.78;;;;;;;;;;6272117;28;20108;-70
2022/09/23 11:57:53;;;;;;;6.03;4.10;;;;;;;;;;6270775;28;20059;-70
2022/09/23 12:01:00;;;;;;;13.75;4.15;;;;;;;;;;6273277;28;20139;-69
2022/09/23 12:04:07;;;;;;;13.13;3.92;;;;;;;;;;6272078;28;20356;-72
2022/09/23 12:07:16;;;;;;;6.13;4.30;;;;;;;;;;6274496;28;20049;-69
2022/09/23 12:10:19;;;;;;;7.10;3.90;;;;;;;;;;6270519;28;20064;-70
2022/09/23 12:13:26;;;;;;;10.75;4.00;;;;;;;;;;6276728;28;20053;-70
2022/09/23 12:16:44;;;;;;;5.80;4.15;;;;;;;;;;6282033;28;20060;-70
2022/09/23 12:20:32;;;;;;;6.97;5.55;;;;;;;;;;6281752;28;20079;-68
2022/09/23 12:24:02;;;;;;;5.53;4.20;;;;;;;;;;6178617;28;20101;-69
2022/09/23 12:27:09;;;;;;;5.82;4.22;;;;;;;;;;6176173;28;20047;-69
2022/09/23 12:30:14;;;;;;;9.30;5.03;;;;;;;;;;6175538;28;20261;-68
2022/09/23 12:33:23;;;;;;;6.35;3.70;;;;;;;;;;6179005;28;20440;-69
2022/09/23 12:36:33;;;;;;;5.18;4.20;;;;;;;;;;6178374;28;20054;-72
2022/09/23 12:39:41;;;;;;;5.32;4.10;;;;;;;;;;6175636;28;20148;-70
2022/09/23 12:42:45;;;;;;;58.95;7.93;;;;;;;;;;6178555;28;20086;-68
2022/09/23 12:45:48;;;;;;;29.23;6.22;;;;;;;;;;6178990;28;20066;-69
2022/09/23 12:49:01;;;;;;;9.55;6.07;;;;;;;;;;6178170;28;20062;-69
2022/09/23 12:52:21;;;;;;;12.88;4.90;;;;;;;;;;6174595;28;20235;-69
2022/09/23 12:55:50;;;;;;;25.55;6.00;;;;;;;;;;6176457;28;20074;-71
2022/09/23 12:59:26;;;;;;;11.65;4.80;;;;;;;;;;6218890;28;20240;-69
2022/09/23 13:02:35;;;;;;;11.10;4.38;;;;;;;;;;6274960;28;20338;-72
2022/09/23 13:09:02;;;;;;;5.78;4.15;;;;;;;;;;6274522;28;20049;-70
2022/09/23 13:12:11;;;;;;;6.00;4.13;;;;;;;;;;6275232;28;20054;-69
2022/09/23 13:15:20;;;;;;;6.93;4.35;;;;;;;;;;6274226;28;20256;-69
2022/09/23 13:18:54;;;;;;;8.48;4.82;;;;;;;;;;6273233;28;20056;-69
2022/09/23 13:22:07;;;;;;;7.43;4.35;;;;;;;;;;6274762;28;20049;-69
2022/09/23 13:25:18;;;;;;;7.00;4.03;;;;;;;;;;6275513;28;20056;-68
2022/09/23 13:28:33;;;;;;;7.45;4.38;;;;;;;;;;6275912;28;20053;-69
2022/09/23 13:31:35;;;;;;;6.82;4.40;;;;;;;;;;6272889;28;20053;-69
2022/09/23 13:34:38;;;;;;;7.70;5.40;;;;;;;;;;6274234;28;20114;-70
2022/09/23 13:37:43;;;;;;;7.45;3.83;;;;;;;;;;6274006;28;20091;-70
2022/09/23 13:40:46;;;;;;;8.68;4.60;;;;;;;;;;6274166;28;20061;-68
2022/09/23 13:43:50;;;;;;;7.17;4.67;;;;;;;;;;6274619;28;20071;-68
2022/09/23 13:46:56;;;;;;;7.00;5.43;;;;;;;;;;6270884;28;20057;-68
2022/09/23 13:49:58;;;;;;;11.57;5.07;;;;;;;;;;6274885;28;20392;-68
2022/09/23 13:53:01;;;;;;;8.68;5.22;;;;;;;;;;6273938;28;20049;-70
2022/09/23 13:56:04;;;;;;;;;;;;;;;;;;6273372;28;20097;-68
2022/09/23 13:59:23;;;;;;;6.60;4.50;;;;;;;;;;6273140;28;19932;-68
2022/09/23 14:02:27;;;;;;;7.93;4.57;;;;;;;;;;6273412;28;20068;-68
2022/09/23 14:05:33;;;;;;;9.07;5.03;;;;;;;;;;6271548;28;20052;-68
2022/09/23 14:08:36;;;;;;;9.25;5.03;;;;;;;;;;6273269;28;20061;-69
2022/09/23 14:11:37;;;;;;;9.63;5.83;;;;;;;;;;6271981;28;20044;-69
2022/09/23 14:14:42;;;;;;;10.18;4.57;;;;;;;;;;6272187;28;20053;-68
2022/09/23 14:17:46;;;;;;;9.40;5.30;;;;;;;;;;6271981;28;20074;-69
2022/09/23 14:20:49;;;;;;;8.30;4.93;;;;;;;;;;6274161;28;20065;-68
2022/09/23 14:23:50;;;;;;;5.68;4.20;;;;;;;;;;6272528;28;20112;-71
2022/09/23 14:26:54;;;;;;;9.68;4.72;;;;;;;;;;6270759;28;20049;-70
2022/09/23 14:29:59;;;;;;;6.90;4.97;;;;;;;;;;6272916;28;20321;-69
2022/09/23 14:33:00;;;;;;;12.23;5.97;;;;;;;;;;6271760;28;20123;-69
2022/09/23 14:36:07;;;;;;;9.95;4.75;;;;;;;;;;6272822;28;20407;-70
2022/09/23 14:39:10;;;;;;;10.38;5.15;;;;;;;;;;6270970;28;20087;-72
2022/09/23 14:42:13;;;;;;;11.32;5.30;;;;;;;;;;6275695;28;20049;-69
2022/09/23 14:45:19;;;;;;;9.82;5.20;;;;;;;;;;6271473;28;20053;-69
2022/09/23 14:48:24;;;;;;;14.02;5.05;;;;;;;;;;6275110;28;20106;-69
2022/09/23 14:51:31;;;;;;;6.45;4.68;;;;;;;;;;6272840;28;20048;-69
2022/09/23 14:54:36;;;;;;;10.48;4.18;;;;;;;;;;6274315;28;20371;-72
2022/09/23 14:57:38;;;;;;;6.63;5.10;;;;;;;;;;6270547;28;20057;-69
2022/09/23 15:00:51;;;;;;;11.13;4.88;;;;;;;;;;6271452;28;20067;-68
2022/09/23 15:03:53;;;;;;;7.40;4.25;;;;;;;;;;6273820;28;20336;-68
2022/09/23 15:06:56;;;;;;;11.43;5.30;;;;;;;;;;6273711;28;20137;-69
2022/09/23 15:09:58;;;;;;;;;;;;;;;;;;6274524;28;20064;-70
2022/09/23 15:13:04;;;;;;;6.63;4.70;;;;;;;;;;6271917;28;19926;-69
2022/09/23 15:16:07;;;;;;;5.80;4.40;;;;;;;;;;6277012;28;20331;-69
2022/09/23 15:19:15;;;;;;;7.28;4.00;;;;;;;;;;6278202;28;20054;-68
2022/09/23 15:22:17;;;;;;;8.95;4.70;;;;;;;;;;6273774;28;20337;-70
2022/09/23 15:25:20;;;;;;;9.15;4.18;;;;;;;;;;6265487;28;20063;-71
2022/09/23 15:28:26;;;;;;;11.82;4.30;;;;;;;;;;6271303;28;20110;-70
2022/09/23 15:31:29;;;;;;;12.60;4.10;;;;;;;;;;6267568;28;20075;-70
2022/09/23 15:34:30;;;;;;;7.70;4.18;;;;;;;;;;6242907;28;20372;-69
2022/09/23 15:37:32;;;;;;;6.97;4.40;;;;;;;;;;6272657;28;20053;-67
2022/09/23 15:40:36;;;;;;;7.00;4.38;;;;;;;;;;6270555;28;20225;-68
2022/09/23 15:43:40;;;;;;;11.13;4.40;;;;;;;;;;6270524;28;20134;-69
2022/09/23 15:46:45;;;;;;;6.53;4.15;;;;;;;;;;6273644;28;20080;-73
2022/09/23 15:49:47;;;;;;;12.43;4.05;;;;;;;;;;6276693;28;20080;-68
2022/09/23 15:52:49;;;;;;;9.70;4.82;;;;;;;;;;6279647;28;20155;-68
2022/09/23 15:55:51;;;;;;;9.23;5.05;;;;;;;;;;6270623;28;20149;-67
2022/09/23 15:58:52;;;;;;;6.97;4.80;;;;;;;;;;6280414;28;20409;-68
2022/09/23 16:01:57;;;;;;;5.82;4.25;;;;;;;;;;6278638;28;20094;-71
2022/09/23 16:05:00;;;;;;;10.13;4.30;;;;;;;;;;6274111;28;20052;-67
2022/09/23 16:08:02;;;;;;;12.90;4.93;;;;;;;;;;6275727;28;20056;-69
2022/09/23 16:11:04;;;;;;;9.02;4.88;;;;;;;;;;6275612;28;20083;-67
2022/09/23 16:14:08;;;;;;;11.23;5.15;;;;;;;;;;6277277;28;20079;-69
2022/09/23 16:17:11;;;;;;;;;;;;;;;;;;6273976;28;20225;-70
2022/09/23 16:20:16;;;;;;;7.80;4.57;;;;;;;;;;6275643;28;23106;-67
2022/09/23 16:23:32;;;;;;;6.20;3.67;;;;;;;;;;6273885;28;20329;-67
2022/09/23 16:26:35;;;;;;;6.05;3.67;;;;;;;;;;6272118;28;20736;-68
2022/09/23 16:29:37;;;;;;;70.20;7.15;;;;;;;;;;6270112;28;20228;-70
2022/09/23 16:32:41;;;;;;;358.63;29.23;;;;;;;;;;6274680;28;20052;-72
2022/09/23 16:35:42;;;;;;;9.27;4.20;;;;;;;;;;6270624;28;20048;-73
2022/09/23 16:38:44;;;;;;;14.75;3.88;;;;;;;;;;6273993;28;20057;-74
2022/09/23 16:41:46;;;;;;;10.68;3.75;;;;;;;;;;6270737;28;20207;-69
2022/09/23 16:44:48;;;;;;;8.77;4.00;;;;;;;;;;6272577;28;20045;-70
2022/09/23 16:47:53;;;;;;;13.30;3.95;;;;;;;;;;6274503;28;20049;-68
2022/09/23 16:50:54;;;;;;;7.68;3.65;;;;;;;;;;6278041;28;20151;-69
2022/09/23 16:53:58;;;;;;;20.25;4.30;;;;;;;;;;6276497;28;20071;-68
2022/09/23 16:56:59;;;;;;;6.70;3.85;;;;;;;;;;6272527;28;20120;-72
2022/09/23 17:06:43;;;;;;;9.55;4.70;;;;;;;;;;6274041;28;20151;-70
2022/09/23 17:09:45;;;;;;;20.02;5.90;;;;;;;;;;6275190;28;20049;-71
2022/09/23 17:12:46;;;;;;;17.30;5.40;;;;;;;;;;6275068;28;20045;-72
2022/09/23 17:15:48;;;;;;;12.02;4.93;;;;;;;;;;6277519;28;20335;-70
2022/09/23 17:18:54;;;;;;;9.15;4.82;;;;;;;;;;6277457;28;20449;-71
2022/09/23 17:21:55;;;;;;;9.45;4.95;;;;;;;;;;6275049;28;20055;-71
2022/09/23 17:24:59;;;;;;;7.53;4.60;;;;;;;;;;6265641;28;20056;-70
2022/09/23 17:28:01;;;;;;;8.73;4.15;;;;;;;;;;6271242;28;20108;-71
2022/09/23 17:31:04;;;;;;;10.88;4.82;;;;;;;;;;6276936;28;20053;-70
2022/09/23 17:34:07;;;;;;;13.57;4.78;;;;;;;;;;6275390;28;20062;-69
2022/09/23 17:37:09;;;;;;;12.25;6.07;;;;;;;;;;6272703;28;20061;-65
2022/09/23 17:40:11;;;;;;;12.90;5.05;;;;;;;;;;6274423;28;20072;-70
2022/09/23 17:43:12;;;;;;;10.98;4.45;;;;;;;;;;6273348;28;20049;-69
2022/09/23 17:46:17;;;;;;;14.10;7.70;;;;;;;;;;6273787;28;20056;-72
2022/09/23 17:49:22;;;;;;;9.43;4.35;;;;;;;;;;6272940;28;20090;-71
2022/09/23 17:52:24;;;;;;;8.38;3.88;;;;;;;;;;6275077;28;20235;-69
2022/09/23 17:55:26;;;;;;;8.95;3.80;;;;;;;;;;6273214;28;20052;-72
2022/09/23 17:58:28;;;;;;;12.32;3.97;;;;;;;;;;6272478;28;20061;-67
2022/09/23 18:01:30;;;;;;;14.67;3.87;;;;;;;;;;6270512;28;20111;-71
2022/09/23 18:04:33;;;;;;;9.73;3.50;;;;;;;;;;6275552;28;20064;-69
2022/09/23 18:07:35;;;;;;;28.42;4.82;;;;;;;;;;6272900;28;20048;-65
2022/09/23 18:10:36;;;;;;;10.15;4.07;;;;;;;;;;6275005;28;20052;-70
2022/09/23 18:13:38;;;;;;;5.60;3.47;;;;;;;;;;6271626;28;20061;-74
2022/09/23 18:16:42;;;;;;;7.70;3.70;;;;;;;;;;6271790;28;20098;-71
2022/09/23 18:19:48;;;;;;;5.65;3.90;;;;;;;;;;6275099;28;20196;-70
2022/09/23 18:22:49;;;;;;;7.43;3.40;;;;;;;;;;6273291;28;20316;-76
2022/09/23 18:25:51;;;;;;;9.57;3.40;;;;;;;;;;6275148;28;20060;-72
2022/09/23 18:28:56;;;;;;;20.67;5.22;;;;;;;;;;6273066;28;20321;-79
2022/09/23 18:31:59;;;;;;;12.77;3.33;;;;;;;;;;6272776;28;20332;-79
2022/09/23 18:35:04;;;;;;;7.00;3.30;;;;;;;;;;6274991;28;20065;-79
2022/09/23 18:38:07;;;;;;;6.95;3.42;;;;;;;;;;6273852;28;20049;-79
2022/09/23 18:41:11;;;;;;;9.40;3.70;;;;;;;;;;6276139;28;20120;-79
2022/09/23 18:44:14;;;;;;;9.73;3.75;;;;;;;;;;6279323;28;20232;-79
2022/09/23 18:50:42;;;;;;;9.75;4.22;;;;;;;;;;6280630;28;20060;-79
2022/09/23 18:53:46;;;;;;;5.80;3.58;;;;;;;;;;6280721;28;20244;-77